createdAt,value
2022-10-30T00:01:20.492Z,10.09
2022-10-30T00:03:48.360Z,10.03
2022-10-30T00:08:45.865Z,9.98
2022-10-30T00:11:14.392Z,9.95
2022-10-30T00:13:47.253Z,9.89
2022-10-30T00:16:15.114Z,9.81
2022-10-30T00:18:43.418Z,9.78
2022-10-30T00:21:14.939Z,9.83
2022-10-30T00:23:51.635Z,9.89
2022-10-30T00:26:21.856Z,9.98
2022-10-30T00:28:54.941Z,10.05
2022-10-30T00:31:23.100Z,10.05
2022-10-30T00:33:55.300Z,10.00
2022-10-30T00:36:24.166Z,10.00
2022-10-30T00:38:52.067Z,10.07
2022-10-30T00:41:24.510Z,10.19
2022-10-30T00:43:53.421Z,10.05
2022-10-30T00:46:35.528Z,9.85
2022-10-30T00:49:10.701Z,9.76
2022-10-30T00:51:43.212Z,9.75
2022-10-30T00:54:12.315Z,9.76
2022-10-30T00:56:40.557Z,9.79
2022-10-30T00:59:24.364Z,9.83
2022-10-30T01:01:54.797Z,9.71
2022-10-30T01:04:28.929Z,9.61
2022-10-30T01:07:02.187Z,9.58
2022-10-30T01:09:30.147Z,9.63
2022-10-30T01:11:58.726Z,9.63
2022-10-30T01:14:27.103Z,9.56
2022-10-30T01:17:34.757Z,9.70
2022-10-30T01:20:04.170Z,9.81
2022-10-30T01:23:08.843Z,9.83
2022-10-30T01:26:15.462Z,9.67
2022-10-30T01:29:09.894Z,9.51
2022-10-30T01:31:52.074Z,9.40
2022-10-30T01:34:51.578Z,9.31
2022-10-30T01:37:42.904Z,9.38
2022-10-30T01:40:17.177Z,9.47
2022-10-30T01:42:56.919Z,9.60
2022-10-30T01:45:43.483Z,9.60
2022-10-30T01:48:42.367Z,9.38
2022-10-30T01:51:40.487Z,9.21
2022-10-30T01:54:49.877Z,9.17
2022-10-30T01:58:08.958Z,9.19
2022-10-30T02:00:42.425Z,9.20
2022-10-30T02:03:11.056Z,9.17
2022-10-30T02:05:50.856Z,9.22
2022-10-30T02:08:22.114Z,9.26
2022-10-30T02:13:33.561Z,9.36
2022-10-30T02:16:01.598Z,9.26
2022-10-30T02:18:30.252Z,9.08
2022-10-30T02:20:58.188Z,9.09
2022-10-30T02:23:26.056Z,9.10
2022-10-30T02:25:55.381Z,9.06
2022-10-30T02:28:23.281Z,8.93
2022-10-30T02:30:50.922Z,8.87
2022-10-30T02:35:53.000Z,8.80
2022-10-30T02:38:20.942Z,8.81
2022-10-30T02:40:50.992Z,8.85
2022-10-30T02:43:18.710Z,8.95
2022-10-30T02:45:51.897Z,9.04
2022-10-30T02:48:20.236Z,8.98
2022-10-30T02:50:48.942Z,8.99
2022-10-30T02:53:17.090Z,8.84
2022-10-30T02:55:46.942Z,8.85
2022-10-30T02:58:14.782Z,8.87
2022-10-30T03:00:43.382Z,8.85
2022-10-30T03:03:11.187Z,8.83
2022-10-30T03:05:38.859Z,8.77
2022-10-30T03:08:06.592Z,8.70
2022-10-30T03:10:34.182Z,8.69
2022-10-30T03:13:01.862Z,8.63
2022-10-30T03:15:29.800Z,8.58
2022-10-30T03:17:57.764Z,8.59
2022-10-30T03:20:25.663Z,8.60
2022-10-30T03:22:54.382Z,8.60
2022-10-30T03:25:23.963Z,8.53
2022-10-30T03:27:55.673Z,8.53
2022-10-30T03:30:23.812Z,8.45
2022-10-30T03:32:51.932Z,8.39
2022-10-30T03:35:21.181Z,8.36
2022-10-30T03:37:48.954Z,8.41
2022-10-30T03:40:17.026Z,8.57
2022-10-30T03:42:45.342Z,8.70
2022-10-30T03:45:13.120Z,8.79
2022-10-30T03:47:41.374Z,8.85
2022-10-30T03:50:10.344Z,8.89
2022-10-30T03:52:38.071Z,8.87
2022-10-30T03:55:06.751Z,8.79
2022-10-30T03:57:38.006Z,8.60
2022-10-30T04:00:12.644Z,8.44
2022-10-30T04:02:48.315Z,8.34
2022-10-30T04:05:20.115Z,8.36
2022-10-30T04:07:49.137Z,8.36
2022-10-30T04:10:21.070Z,8.43
2022-10-30T04:12:53.052Z,8.51
2022-10-30T04:15:20.791Z,8.46
2022-10-30T04:17:52.394Z,8.29
2022-10-30T04:20:24.773Z,8.19
2022-10-30T04:23:04.485Z,8.19
2022-10-30T04:25:36.990Z,8.23
2022-10-30T04:28:06.532Z,8.30
2022-10-30T04:30:36.928Z,8.35
2022-10-30T04:33:08.762Z,8.31
2022-10-30T04:35:38.451Z,8.26
2022-10-30T04:38:15.162Z,8.33
2022-10-30T04:40:44.802Z,8.26
2022-10-30T04:43:14.840Z,8.26
2022-10-30T04:45:45.439Z,8.25
2022-10-30T04:48:17.479Z,8.24
2022-10-30T04:50:45.958Z,8.41
2022-10-30T04:53:21.246Z,8.46
2022-10-30T04:55:56.044Z,8.49
2022-10-30T04:58:23.740Z,8.44
2022-10-30T05:01:04.418Z,8.37
2022-10-30T05:03:33.401Z,8.32
2022-10-30T05:06:38.672Z,8.23
2022-10-30T05:09:06.267Z,8.16
2022-10-30T05:11:40.754Z,8.15
2022-10-30T05:14:09.116Z,8.10
2022-10-30T05:16:38.113Z,8.09
2022-10-30T05:19:06.478Z,8.05
2022-10-30T05:21:35.484Z,7.91
2022-10-30T05:24:03.674Z,7.95
2022-10-30T05:26:40.469Z,7.94
2022-10-30T05:29:08.119Z,7.92
2022-10-30T05:31:36.404Z,7.84
2022-10-30T05:34:22.440Z,7.81
2022-10-30T05:36:53.587Z,7.82
2022-10-30T05:39:22.233Z,7.96
2022-10-30T05:41:51.909Z,8.01
2022-10-30T05:44:34.256Z,8.03
2022-10-30T05:47:11.660Z,8.10
2022-10-30T05:49:42.339Z,8.17
2022-10-30T05:52:15.595Z,8.25
2022-10-30T05:54:43.487Z,8.38
2022-10-30T05:57:19.157Z,8.42
2022-10-30T05:59:47.351Z,8.45
2022-10-30T06:02:17.135Z,8.44
2022-10-30T06:04:45.208Z,8.42
2022-10-30T06:07:14.671Z,8.50
2022-10-30T06:09:42.328Z,8.58
2022-10-30T06:12:18.912Z,8.72
2022-10-30T06:15:05.616Z,8.68
2022-10-30T06:17:33.570Z,8.73
2022-10-30T06:20:12.749Z,8.80
2022-10-30T06:23:08.579Z,8.90
2022-10-30T06:25:49.515Z,8.95
2022-10-30T06:28:30.856Z,8.98
2022-10-30T06:30:58.589Z,8.94
2022-10-30T06:33:26.264Z,8.89
2022-10-30T06:35:55.039Z,8.88
2022-10-30T06:38:22.866Z,8.88
2022-10-30T06:40:52.321Z,8.93
2022-10-30T06:43:34.878Z,9.01
2022-10-30T06:46:10.631Z,9.15
2022-10-30T06:48:41.294Z,9.25
2022-10-30T06:51:09.639Z,9.37
2022-10-30T06:53:39.740Z,9.49
2022-10-30T06:56:26.001Z,9.66
2022-10-30T06:59:32.245Z,9.80
2022-10-30T07:02:18.351Z,9.83
2022-10-30T07:04:51.569Z,9.88
2022-10-30T07:07:19.497Z,9.89
2022-10-30T07:09:47.342Z,9.91
2022-10-30T07:12:17.221Z,9.96
2022-10-30T07:15:07.814Z,10.03
2022-10-30T07:17:41.136Z,10.16
2022-10-30T07:20:21.431Z,10.33
2022-10-30T07:22:49.258Z,10.45
2022-10-30T07:25:17.652Z,10.59
2022-10-30T07:28:03.979Z,10.69
2022-10-30T07:30:42.822Z,10.73
2022-10-30T07:33:33.070Z,10.90
2022-10-30T07:36:06.157Z,11.00
2022-10-30T07:38:53.197Z,11.15
2022-10-30T07:41:48.948Z,11.33
2022-10-30T07:44:43.621Z,11.51
2022-10-30T07:47:15.122Z,11.73
2022-10-30T07:49:51.025Z,11.94
2022-10-30T07:52:19.317Z,12.13
2022-10-30T07:54:49.231Z,12.27
2022-10-30T07:57:40.070Z,12.42
2022-10-30T08:00:33.656Z,12.64
2022-10-30T08:03:12.398Z,12.86
2022-10-30T08:06:05.330Z,13.10
2022-10-30T08:08:40.332Z,13.27
2022-10-30T08:11:30.572Z,13.45
2022-10-30T08:14:00.477Z,13.63
2022-10-30T08:16:28.594Z,13.89
2022-10-30T08:18:56.519Z,14.17
2022-10-30T08:21:26.376Z,14.42
2022-10-30T08:24:05.741Z,14.63
2022-10-30T08:26:35.701Z,14.76
2022-10-30T08:29:04.556Z,14.83
2022-10-30T08:31:32.261Z,15.00
2022-10-30T08:34:02.664Z,15.17
2022-10-30T08:36:39.123Z,15.35
2022-10-30T08:39:06.960Z,15.53
2022-10-30T08:41:59.306Z,15.75
2022-10-30T08:44:30.703Z,15.97
2022-10-30T08:47:24.533Z,16.19
2022-10-30T08:49:52.302Z,16.38
2022-10-30T08:52:23.173Z,16.52
2022-10-30T08:54:55.845Z,16.71
2022-10-30T08:57:26.394Z,16.84
2022-10-30T08:59:55.951Z,16.91
2022-10-30T09:02:45.413Z,16.95
2022-10-30T09:05:31.974Z,16.98
2022-10-30T09:08:17.523Z,16.97
2022-10-30T09:11:07.079Z,16.99
2022-10-30T09:13:34.905Z,17.04
2022-10-30T09:16:05.200Z,17.08
2022-10-30T09:18:36.128Z,17.13
2022-10-30T09:21:05.221Z,17.28
2022-10-30T09:23:39.214Z,17.54
2022-10-30T09:26:38.934Z,17.95
2022-10-30T09:29:17.883Z,18.25
2022-10-30T09:32:10.489Z,18.48
2022-10-30T09:34:56.275Z,18.64
2022-10-30T09:37:36.362Z,18.78
2022-10-30T09:40:09.834Z,18.88
2022-10-30T09:42:46.719Z,18.97
2022-10-30T09:45:43.754Z,19.05
2022-10-30T09:48:31.495Z,19.12
2022-10-30T09:51:49.429Z,19.27
2022-10-30T09:54:42.102Z,19.46
2022-10-30T09:57:42.807Z,19.62
2022-10-30T10:00:17.691Z,19.79
2022-10-30T10:03:12.842Z,19.95
2022-10-30T10:06:01.276Z,20.04
2022-10-30T10:09:13.744Z,20.13
2022-10-30T10:12:38.695Z,20.19
2022-10-30T10:15:39.691Z,20.36
2022-10-30T10:18:19.321Z,20.48
2022-10-30T10:20:58.196Z,20.57
2022-10-30T10:23:48.527Z,20.68
2022-10-30T10:26:35.897Z,20.74
2022-10-30T10:29:37.393Z,20.79
2022-10-30T10:32:14.532Z,20.79
2022-10-30T10:35:28.328Z,20.81
2022-10-30T10:38:33.024Z,20.85
2022-10-30T10:41:21.756Z,20.90
2022-10-30T10:44:29.177Z,20.96
2022-10-30T10:47:40.101Z,21.02
2022-10-30T10:50:32.683Z,21.14
2022-10-30T10:53:30.809Z,21.25
2022-10-30T10:56:01.849Z,21.25
2022-10-30T10:59:03.646Z,21.25
2022-10-30T11:01:40.449Z,21.47
2022-10-30T11:04:39.663Z,21.70
2022-10-30T11:07:49.028Z,21.91
2022-10-30T11:10:20.470Z,22.03
2022-10-30T11:12:48.213Z,22.18
2022-10-30T11:15:26.623Z,22.24
2022-10-30T11:18:07.881Z,22.35
2022-10-30T11:20:56.078Z,22.29
2022-10-30T11:23:39.103Z,22.26
2022-10-30T11:26:18.472Z,22.20
2022-10-30T11:28:58.271Z,22.11
2022-10-30T11:31:37.897Z,22.07
2022-10-30T11:34:17.689Z,22.05
2022-10-30T11:36:48.231Z,22.00
2022-10-30T11:39:30.385Z,21.95
2022-10-30T11:42:14.684Z,21.98
2022-10-30T11:44:49.451Z,21.94
2022-10-30T11:47:25.228Z,21.92
2022-10-30T11:50:00.222Z,21.94
2022-10-30T11:52:28.497Z,21.97
2022-10-30T11:55:19.352Z,22.05
2022-10-30T11:57:51.887Z,22.12
2022-10-30T12:00:34.415Z,22.11
2022-10-30T12:03:03.565Z,22.10
2022-10-30T12:05:42.558Z,22.14
2022-10-30T12:08:18.509Z,22.17
2022-10-30T12:10:58.889Z,22.18
2022-10-30T12:13:31.455Z,22.23
2022-10-30T12:16:16.616Z,22.22
2022-10-30T12:19:06.922Z,22.31
2022-10-30T12:21:44.665Z,22.43
2022-10-30T12:24:34.297Z,22.53
2022-10-30T12:27:07.142Z,22.62
2022-10-30T12:30:09.678Z,22.70
2022-10-30T12:33:07.041Z,22.69
2022-10-30T12:35:55.577Z,22.72
2022-10-30T12:38:44.079Z,22.71
2022-10-30T12:41:53.117Z,22.75
2022-10-30T12:44:33.811Z,22.74
2022-10-30T12:47:26.779Z,22.76
2022-10-30T12:52:41.865Z,22.85
2022-10-30T12:55:18.036Z,22.91
2022-10-30T12:58:16.101Z,22.95
2022-10-30T13:01:10.177Z,22.97
2022-10-30T13:03:57.615Z,23.01
2022-10-30T13:06:32.245Z,23.05
2022-10-30T13:09:18.401Z,23.05
2022-10-30T13:11:54.396Z,23.05
2022-10-30T13:14:38.916Z,23.05
2022-10-30T13:17:13.664Z,23.06
2022-10-30T13:19:47.113Z,23.07
2022-10-30T13:22:27.545Z,23.11
2022-10-30T13:25:22.297Z,23.12
2022-10-30T13:28:02.551Z,23.11
2022-10-30T13:30:40.323Z,23.18
2022-10-30T13:33:41.182Z,23.16
2022-10-30T13:36:23.200Z,23.14
2022-10-30T13:39:13.948Z,23.08
2022-10-30T13:42:08.709Z,23.02
2022-10-30T13:44:46.678Z,23.04
2022-10-30T13:48:02.756Z,23.01
2022-10-30T13:51:01.183Z,22.93
2022-10-30T13:53:34.311Z,22.98
2022-10-30T13:56:02.193Z,22.96
2022-10-30T13:58:44.287Z,22.96
2022-10-30T14:01:24.929Z,22.88
2022-10-30T14:04:19.360Z,22.90
2022-10-30T14:06:55.686Z,22.88
2022-10-30T14:10:13.381Z,22.81
2022-10-30T14:32:19.435Z,22.24
2022-10-30T14:34:58.726Z,22.26
2022-10-30T14:37:31.175Z,22.30
2022-10-30T14:40:39.063Z,22.30
2022-10-30T14:43:28.996Z,22.18
2022-10-30T14:46:23.831Z,22.03
2022-10-30T14:49:13.288Z,21.96
2022-10-30T14:51:58.944Z,21.81
2022-10-30T14:54:41.462Z,21.71
2022-10-30T14:57:51.121Z,21.54
2022-10-30T15:00:24.773Z,21.40
2022-10-30T15:03:18.996Z,21.26
2022-10-30T15:06:27.478Z,21.11
2022-10-30T15:09:23.937Z,20.97
2022-10-30T15:12:54.006Z,20.83
2022-10-30T15:15:25.528Z,20.75
2022-10-30T15:17:59.729Z,20.69
2022-10-30T15:20:32.437Z,20.59
2022-10-30T15:23:28.077Z,20.49
2022-10-30T15:26:06.433Z,20.37
2022-10-30T15:28:39.123Z,20.28
2022-10-30T15:31:23.977Z,20.17
2022-10-30T15:33:56.698Z,20.09
2022-10-30T15:36:35.579Z,20.04
2022-10-30T15:39:11.981Z,19.98
2022-10-30T15:41:46.734Z,19.90
2022-10-30T15:44:37.703Z,19.81
2022-10-30T15:47:15.169Z,19.75
2022-10-30T15:49:51.823Z,19.67
2022-10-30T15:52:36.352Z,19.59
2022-10-30T15:55:15.904Z,19.41
2022-10-30T15:58:07.388Z,19.18
2022-10-30T16:00:38.339Z,18.93
2022-10-30T16:03:18.269Z,18.79
2022-10-30T16:05:46.308Z,18.68
2022-10-30T16:08:22.895Z,18.60
2022-10-30T16:10:55.049Z,18.51
2022-10-30T16:13:29.745Z,18.44
2022-10-30T16:15:57.801Z,18.34
2022-10-30T16:18:31.048Z,18.23
2022-10-30T16:21:07.681Z,18.13
2022-10-30T16:23:48.500Z,18.01
2022-10-30T16:26:42.442Z,17.90
2022-10-30T16:29:13.282Z,17.82
2022-10-30T16:31:49.758Z,17.73
2022-10-30T16:34:35.284Z,17.61
2022-10-30T16:37:13.233Z,17.51
2022-10-30T16:39:42.760Z,17.47
2022-10-30T16:42:22.031Z,17.39
2022-10-30T16:44:50.219Z,17.29
2022-10-30T16:47:17.933Z,17.21
2022-10-30T16:49:58.467Z,17.15
2022-10-30T16:52:33.050Z,17.07
2022-10-30T16:55:22.287Z,16.95
2022-10-30T16:57:59.136Z,16.88
2022-10-30T17:00:32.866Z,16.82
2022-10-30T17:03:12.216Z,16.73
2022-10-30T17:05:43.707Z,16.61
2022-10-30T17:08:17.276Z,16.53
2022-10-30T17:10:59.575Z,16.47
2022-10-30T17:13:36.433Z,16.42
2022-10-30T17:16:28.140Z,16.29
2022-10-30T17:19:02.023Z,16.14
2022-10-30T17:21:42.594Z,16.04
2022-10-30T17:24:22.879Z,15.95
2022-10-30T17:27:00.378Z,15.85
2022-10-30T17:29:36.881Z,15.84
2022-10-30T17:32:27.128Z,15.83
2022-10-30T17:35:16.505Z,15.73
2022-10-30T17:37:44.349Z,15.66
2022-10-30T17:40:13.971Z,15.63
2022-10-30T17:42:42.048Z,15.57
2022-10-30T17:45:15.969Z,15.49
2022-10-30T17:47:43.945Z,15.40
2022-10-30T17:50:12.419Z,15.30
2022-10-30T17:52:40.130Z,15.20
2022-10-30T17:55:24.974Z,15.11
2022-10-30T17:57:53.147Z,15.03
2022-10-30T18:00:20.988Z,14.96
2022-10-30T18:02:49.185Z,14.94
2022-10-30T18:05:22.463Z,14.90
2022-10-30T18:10:22.730Z,14.84
2022-10-30T18:12:50.532Z,14.81
2022-10-30T18:15:39.613Z,14.71
2022-10-30T18:18:07.848Z,14.63
2022-10-30T18:20:36.021Z,14.62
2022-10-30T18:23:04.438Z,14.57
2022-10-30T18:25:36.385Z,14.52
2022-10-30T18:28:04.233Z,14.48
2022-10-30T18:30:32.037Z,14.41
2022-10-30T18:32:59.833Z,14.33
2022-10-30T18:35:37.303Z,14.26
2022-10-30T18:38:06.498Z,14.13
2022-10-30T18:40:35.791Z,14.13
2022-10-30T18:43:03.682Z,14.12
2022-10-30T18:45:40.988Z,14.10
2022-10-30T18:48:09.547Z,14.09
2022-10-30T18:50:38.149Z,14.13
2022-10-30T18:53:15.893Z,14.11
2022-10-30T18:55:44.822Z,14.06
2022-10-30T18:58:12.847Z,14.01
2022-10-30T19:01:09.982Z,13.93
2022-10-30T19:03:28.593Z,13.94
2022-10-30T19:05:57.084Z,13.96
2022-10-30T19:08:24.851Z,14.00
2022-10-30T19:10:56.991Z,14.01
2022-10-30T19:13:24.999Z,13.92
2022-10-30T19:16:00.545Z,13.86
2022-10-30T19:18:31.303Z,13.79
2022-10-30T19:21:09.125Z,13.72
2022-10-30T19:23:40.756Z,13.64
2022-10-30T19:26:08.603Z,13.59
2022-10-30T19:28:38.453Z,13.55
2022-10-30T19:31:06.616Z,13.49
2022-10-30T19:33:34.368Z,13.45
2022-10-30T19:36:04.930Z,13.42
2022-10-30T19:38:33.490Z,13.41
2022-10-30T19:41:01.255Z,13.33
2022-10-30T19:43:28.964Z,13.27
2022-10-30T19:45:58.128Z,13.16
2022-10-30T19:48:56.142Z,13.11
2022-10-30T19:51:14.554Z,13.04
2022-10-30T19:53:42.844Z,12.96
2022-10-30T19:56:14.938Z,12.88
2022-10-30T19:58:42.752Z,12.79
2022-10-30T20:01:13.761Z,12.77
2022-10-30T20:03:41.463Z,12.72
2022-10-30T20:06:12.867Z,12.76
2022-10-30T20:08:41.148Z,12.68
2022-10-30T20:11:09.027Z,12.65
2022-10-30T20:13:37.363Z,12.62
2022-10-30T20:16:06.215Z,12.60
2022-10-30T20:18:36.219Z,12.60
2022-10-30T20:21:10.191Z,12.59
2022-10-30T20:23:38.957Z,12.55
2022-10-30T20:26:29.293Z,12.52
2022-10-30T20:29:02.246Z,12.50
2022-10-30T20:31:29.972Z,12.46
2022-10-30T20:33:57.652Z,12.47
2022-10-30T20:36:25.487Z,12.38
2022-10-30T20:38:53.280Z,12.30
2022-10-30T20:41:24.782Z,12.25
2022-10-30T20:43:52.973Z,12.29
2022-10-30T20:46:21.246Z,12.26
2022-10-30T20:48:49.223Z,12.22
2022-10-30T20:51:17.071Z,12.18
2022-10-30T20:53:44.793Z,12.07
2022-10-30T20:56:12.613Z,12.01
2022-10-30T20:58:41.391Z,11.91
2022-10-30T21:01:09.214Z,11.86
2022-10-30T21:03:37.012Z,11.74
2022-10-30T21:06:06.202Z,11.70
2022-10-30T21:08:33.898Z,11.65
2022-10-30T21:11:04.316Z,11.64
2022-10-30T21:13:34.921Z,11.64
2022-10-30T21:16:05.592Z,11.62
2022-10-30T21:18:33.329Z,11.61
2022-10-30T21:21:03.029Z,11.63
2022-10-30T21:23:30.933Z,11.64
2022-10-30T21:26:01.075Z,11.67
2022-10-30T21:28:28.808Z,11.67
2022-10-30T21:31:12.482Z,11.65
2022-10-30T21:33:40.343Z,11.58
2022-10-30T21:36:14.472Z,11.55
2022-10-30T21:38:44.690Z,11.46
2022-10-30T21:41:16.610Z,11.41
2022-10-30T21:43:53.545Z,11.34
2022-10-30T21:46:24.793Z,11.38
2022-10-30T21:48:53.064Z,11.44
2022-10-30T21:51:26.837Z,11.49
2022-10-30T21:53:56.771Z,11.43
2022-10-30T21:56:30.127Z,11.33
2022-10-30T21:59:00.504Z,11.24
2022-10-30T22:01:30.718Z,11.15
2022-10-30T22:04:00.561Z,11.12
2022-10-30T22:06:29.613Z,11.05
2022-10-30T22:08:58.708Z,10.99
2022-10-30T22:11:28.547Z,11.04
2022-10-30T22:13:59.772Z,11.03
2022-10-30T22:16:31.099Z,10.96
2022-10-30T22:19:00.002Z,10.90
2022-10-30T22:21:28.210Z,10.83
2022-10-30T22:23:56.055Z,10.75
2022-10-30T22:26:24.358Z,10.71
2022-10-30T22:28:55.119Z,10.68
2022-10-30T22:31:25.126Z,10.64
2022-10-30T22:33:53.492Z,10.62
2022-10-30T22:36:28.816Z,10.61
2022-10-30T22:39:07.705Z,10.59
2022-10-30T22:41:37.907Z,10.55
2022-10-30T22:44:08.561Z,10.47
2022-10-30T22:46:36.854Z,10.44
2022-10-30T22:49:04.878Z,10.45
2022-10-30T22:51:35.849Z,10.47
2022-10-30T22:54:06.382Z,10.52
2022-10-30T22:56:36.919Z,10.56
2022-10-30T22:59:10.259Z,10.61
2022-10-30T23:01:40.090Z,10.67
2022-10-30T23:04:10.707Z,10.71
2022-10-30T23:06:38.760Z,10.69
2022-10-30T23:09:17.318Z,10.61
2022-10-30T23:11:45.788Z,10.54
2022-10-30T23:14:15.397Z,10.51
2022-10-30T23:16:43.137Z,10.46
2022-10-30T23:19:11.579Z,10.41
2022-10-30T23:21:39.404Z,10.38
2022-10-30T23:24:07.793Z,10.34
2022-10-30T23:26:36.432Z,10.27
2022-10-30T23:29:04.979Z,10.21
2022-10-30T23:31:37.667Z,10.17
2022-10-30T23:34:17.302Z,10.10
2022-10-30T23:36:45.137Z,10.11
2022-10-30T23:39:17.891Z,10.07
2022-10-30T23:41:46.402Z,10.06
2022-10-30T23:44:16.107Z,9.98
2022-10-30T23:46:43.894Z,9.92
2022-10-30T23:49:11.870Z,9.86
2022-10-30T23:51:39.812Z,9.86
2022-10-30T23:54:07.462Z,9.82
2022-10-30T23:56:35.135Z,9.81
2022-10-30T23:59:02.927Z,9.79
